Lottie, Louisiana
Current Conditions -  °F | °C
As of 1:35 PM on Thursday 27 Nov 2014 (Local Time) from KHZR Reporting Station
Clear Clear  
Wind Chill: 58°   Ceiling: Unl
Heat Index: 58°   Visibility: 10mi
Dew Point: 30°   Wind: 9mph
Humidity: 35%   Direction: 330°NNW
Pressure: 30.42"   Gusts: NA
Location:  30.56°N, 91.64°W
Report Text: KHZR 271935Z AUTO 33008KT 10SM CLR 15/M01 A3042 RMK AO2 T01451009
Loading
Personal Weather Stations






























Interactive Weather Map New forecast layout! Learn more

10-Day Weather Forecast

Advertisements
Track Severe Weather on mobile